createdAt,value
2023-05-25T00:02:20.581Z,101919.47
2023-05-25T00:04:49.586Z,101914.47
2023-05-25T00:07:18.842Z,101918.31
2023-05-25T00:09:46.746Z,101922.97
2023-05-25T00:12:15.670Z,101915.09
2023-05-25T00:14:43.500Z,101916.16
2023-05-25T00:17:11.438Z,101915.53
2023-05-25T00:19:42.243Z,101916.56
2023-05-25T00:22:11.452Z,101920.28
2023-05-25T00:24:40.714Z,101919.53
2023-05-25T00:27:08.519Z,101909.13
2023-05-25T00:29:37.020Z,101910.16
2023-05-25T00:32:05.958Z,101900.59
2023-05-25T00:34:33.686Z,101907.06
2023-05-25T00:37:01.438Z,101908.31
2023-05-25T00:39:30.563Z,101910.47
2023-05-25T00:42:00.070Z,101910.75
2023-05-25T00:44:32.052Z,101910.09
2023-05-25T00:47:01.377Z,101912.13
2023-05-25T00:49:31.744Z,101914.13
2023-05-25T00:51:59.432Z,101912.59
2023-05-25T00:54:27.610Z,101908.34
2023-05-25T00:57:04.072Z,101912.06
2023-05-25T00:59:41.441Z,101914.06
2023-05-25T01:02:10.990Z,101917.88
2023-05-25T01:04:45.307Z,101921.66
2023-05-25T01:07:19.428Z,101919.22
2023-05-25T01:09:49.466Z,101921.22
2023-05-25T01:12:20.960Z,101929.50
2023-05-25T01:14:49.278Z,101928.84
2023-05-25T01:17:17.958Z,101932.63
2023-05-25T01:19:47.665Z,101938.16
2023-05-25T01:22:29.664Z,101937.47
2023-05-25T01:25:03.639Z,101935.88
2023-05-25T01:27:39.423Z,101930.66
2023-05-25T01:30:10.860Z,101930.84
2023-05-25T01:32:39.411Z,101928.94
2023-05-25T01:35:08.964Z,101926.41
2023-05-25T01:37:39.665Z,101924.59
2023-05-25T01:40:09.819Z,101926.41
2023-05-25T01:42:37.438Z,101934.47
2023-05-25T01:45:07.621Z,101931.72
2023-05-25T01:47:45.530Z,101930.00
2023-05-25T01:50:19.472Z,101927.47
2023-05-25T01:52:57.987Z,101925.72
2023-05-25T01:55:29.862Z,101932.94
2023-05-25T01:57:59.962Z,101932.09
2023-05-25T02:00:31.792Z,101926.03
2023-05-25T02:03:01.185Z,101928.69
2023-05-25T02:05:28.818Z,101924.41
2023-05-25T02:07:57.830Z,101923.66
2023-05-25T02:10:25.421Z,101923.78
2023-05-25T02:12:53.132Z,101925.66
2023-05-25T02:15:20.752Z,101920.56
2023-05-25T02:17:48.515Z,101927.66
2023-05-25T02:20:16.223Z,101931.28
2023-05-25T02:22:43.985Z,101929.53
2023-05-25T02:25:12.883Z,101917.44
2023-05-25T02:27:40.735Z,101921.97
2023-05-25T02:30:09.318Z,101920.38
2023-05-25T02:32:37.561Z,101918.66
2023-05-25T02:35:05.593Z,101918.84
2023-05-25T02:37:34.177Z,101930.50
2023-05-25T02:40:01.856Z,101922.94
2023-05-25T02:42:31.619Z,101929.34
2023-05-25T02:45:00.378Z,101934.00
2023-05-25T02:47:29.044Z,101943.94
2023-05-25T02:49:56.707Z,101940.63
2023-05-25T02:52:25.644Z,101938.25
2023-05-25T02:54:53.356Z,101938.44
2023-05-25T02:57:29.070Z,101932.38
2023-05-25T02:59:59.853Z,101938.69
2023-05-25T03:02:30.847Z,101949.38
2023-05-25T03:05:00.850Z,101952.31
2023-05-25T03:07:31.015Z,101956.06
2023-05-25T03:09:59.484Z,101952.88
2023-05-25T03:12:27.265Z,101951.22
2023-05-25T03:14:55.028Z,101964.59
2023-05-25T03:17:24.932Z,101969.13
2023-05-25T03:19:53.149Z,101972.91
2023-05-25T03:22:21.877Z,101970.41
2023-05-25T03:24:50.234Z,101976.00
2023-05-25T03:27:18.728Z,101977.88
2023-05-25T03:29:50.049Z,101979.88
2023-05-25T03:32:17.833Z,101978.22
2023-05-25T03:34:46.979Z,101980.13
2023-05-25T03:37:17.177Z,101980.22
2023-05-25T03:39:45.096Z,101982.88
2023-05-25T03:42:12.885Z,101988.22
2023-05-25T03:44:41.360Z,101991.06
2023-05-25T03:47:09.676Z,101983.13
2023-05-25T03:49:37.207Z,101983.22
2023-05-25T03:52:07.303Z,101984.13
2023-05-25T03:54:35.001Z,101986.78
2023-05-25T03:57:03.704Z,101988.53
2023-05-25T03:59:33.051Z,101989.44
2023-05-25T04:02:00.592Z,101996.53
2023-05-25T04:04:29.952Z,101987.81
2023-05-25T04:06:57.658Z,101998.44
2023-05-25T04:09:26.545Z,101989.72
2023-05-25T04:11:54.223Z,101992.44
2023-05-25T04:14:22.957Z,101996.88
2023-05-25T04:16:50.890Z,102001.22
2023-05-25T04:19:19.378Z,101994.22
2023-05-25T04:21:47.940Z,101996.81
2023-05-25T04:24:16.899Z,102001.06
2023-05-25T04:26:46.841Z,102004.47
2023-05-25T04:29:14.612Z,102007.97
2023-05-25T04:32:18.668Z,102012.06
2023-05-25T04:34:53.567Z,102012.78
2023-05-25T04:37:27.119Z,102016.28
2023-05-25T04:39:57.575Z,102018.75
2023-05-25T04:42:26.841Z,102025.66
2023-05-25T04:44:56.403Z,102027.38
2023-05-25T04:47:25.824Z,102027.22
2023-05-25T04:49:54.171Z,102027.00
2023-05-25T04:52:21.704Z,102026.84
2023-05-25T04:54:49.450Z,102037.94
2023-05-25T04:57:17.404Z,102032.56
2023-05-25T04:59:46.503Z,102034.94
2023-05-25T05:02:14.207Z,102038.19
2023-05-25T05:04:42.316Z,102042.28
2023-05-25T05:07:10.461Z,102036.66
2023-05-25T05:09:38.319Z,102049.53
2023-05-25T05:12:07.721Z,102048.34
2023-05-25T05:14:40.197Z,102045.31
2023-05-25T05:17:10.420Z,102037.94
2023-05-25T05:19:38.685Z,102043.72
2023-05-25T05:22:09.776Z,102041.72
2023-05-25T05:24:38.744Z,102052.94
2023-05-25T05:27:07.104Z,102047.25
2023-05-25T05:29:42.485Z,102048.69
2023-05-25T05:32:11.655Z,102052.75
2023-05-25T05:34:39.381Z,102057.69
2023-05-25T05:37:15.124Z,102048.50
2023-05-25T05:39:42.758Z,102056.94
2023-05-25T05:42:10.564Z,102062.72
2023-05-25T05:44:38.336Z,102053.53
2023-05-25T05:47:06.713Z,102061.88
2023-05-25T05:49:37.793Z,102065.97
2023-05-25T05:52:06.668Z,102065.38
2023-05-25T05:54:35.002Z,102074.66
2023-05-25T05:57:09.456Z,102084.72
2023-05-25T05:59:37.971Z,102080.53
2023-05-25T06:02:07.317Z,102086.94
2023-05-25T06:04:38.332Z,102092.66
2023-05-25T06:07:06.366Z,102094.69
2023-05-25T06:09:34.558Z,102097.63
2023-05-25T06:12:03.333Z,102101.47
2023-05-25T06:14:31.100Z,102101.09
2023-05-25T06:17:02.562Z,102097.28
2023-05-25T06:19:30.445Z,102097.63
2023-05-25T06:21:59.770Z,102096.28
2023-05-25T06:24:27.399Z,102096.72
2023-05-25T06:26:54.973Z,102112.28
2023-05-25T06:29:22.658Z,102108.25
2023-05-25T06:31:50.333Z,102108.78
2023-05-25T06:34:19.244Z,102110.09
2023-05-25T06:36:47.640Z,102111.47
2023-05-25T06:39:17.586Z,102105.63
2023-05-25T06:41:46.319Z,102110.53
2023-05-25T06:44:26.174Z,102115.34
2023-05-25T06:46:53.802Z,102104.34
2023-05-25T06:49:21.617Z,102102.13
2023-05-25T06:51:51.286Z,102102.56
2023-05-25T06:54:20.596Z,102103.19
2023-05-25T06:56:48.362Z,102108.09
2023-05-25T06:59:16.005Z,102113.94
2023-05-25T07:01:43.682Z,102116.41
2023-05-25T07:04:11.517Z,102115.34
2023-05-25T07:06:39.157Z,102112.56
2023-05-25T07:09:07.173Z,102117.88
2023-05-25T07:11:36.046Z,102119.50
2023-05-25T07:14:03.661Z,102117.44
2023-05-25T07:16:32.032Z,102123.13
2023-05-25T07:19:00.405Z,102124.25
2023-05-25T07:21:28.378Z,102121.28
2023-05-25T07:23:55.995Z,102121.91
2023-05-25T07:26:25.593Z,102116.59
2023-05-25T07:28:54.827Z,102120.81
2023-05-25T07:31:22.824Z,102122.31
2023-05-25T07:33:50.784Z,102126.41
2023-05-25T07:36:18.353Z,102122.66
2023-05-25T07:38:48.280Z,102130.31
2023-05-25T07:41:15.897Z,102131.91
2023-05-25T07:43:43.758Z,102140.53
2023-05-25T07:46:12.890Z,102140.31
2023-05-25T07:48:40.514Z,102139.25
2023-05-25T07:51:08.166Z,102142.53
2023-05-25T07:53:36.216Z,102141.34
2023-05-25T07:56:04.887Z,102143.69
2023-05-25T07:58:32.526Z,102144.22
2023-05-25T08:01:00.443Z,102142.16
2023-05-25T08:03:44.401Z,102151.53
2023-05-25T08:06:15.613Z,102160.28
2023-05-25T08:08:44.981Z,102151.06
2023-05-25T08:11:12.985Z,102149.88
2023-05-25T08:13:41.473Z,102148.78
2023-05-25T08:16:09.535Z,102152.94
2023-05-25T08:18:38.525Z,102147.41
2023-05-25T08:21:07.219Z,102151.50
2023-05-25T08:23:34.751Z,102158.34
2023-05-25T08:26:05.963Z,102152.88
2023-05-25T08:28:39.356Z,102151.91
2023-05-25T08:31:06.935Z,102156.06
2023-05-25T08:33:34.552Z,102160.31
2023-05-25T08:36:03.448Z,102158.41
2023-05-25T08:38:31.789Z,102165.22
2023-05-25T08:41:08.332Z,102171.16
2023-05-25T08:43:36.580Z,102169.22
2023-05-25T08:46:06.390Z,102173.72
2023-05-25T08:48:41.927Z,102168.16
2023-05-25T08:51:14.483Z,102167.19
2023-05-25T08:53:44.390Z,102168.66
2023-05-25T08:56:18.342Z,102173.16
2023-05-25T08:58:52.798Z,102164.75
2023-05-25T09:01:24.016Z,102177.06
2023-05-25T09:03:52.641Z,102177.44
2023-05-25T09:06:22.930Z,102172.72
2023-05-25T09:08:51.450Z,102172.59
2023-05-25T09:11:36.167Z,102181.97
2023-05-25T09:14:05.539Z,102180.88
2023-05-25T09:16:33.360Z,102181.38
2023-05-25T09:19:01.000Z,102184.44
2023-05-25T09:21:29.958Z,102181.91
2023-05-25T09:23:57.603Z,102184.44
2023-05-25T09:26:26.286Z,102177.78
2023-05-25T09:28:53.896Z,102181.66
2023-05-25T09:31:24.652Z,102187.66
2023-05-25T09:33:55.515Z,102186.44
2023-05-25T09:36:24.018Z,102178.03
2023-05-25T09:38:56.369Z,102189.22
2023-05-25T09:41:27.503Z,102179.75
2023-05-25T09:44:06.496Z,102178.31
2023-05-25T09:46:39.054Z,102181.34
2023-05-25T09:49:09.893Z,102178.91
2023-05-25T09:51:37.791Z,102188.13
2023-05-25T09:54:10.804Z,102184.97
2023-05-25T09:56:38.577Z,102181.72
2023-05-25T09:59:06.459Z,102178.75
2023-05-25T10:01:34.515Z,102183.97
2023-05-25T10:04:10.328Z,102189.97
2023-05-25T10:06:39.820Z,102188.97
2023-05-25T10:09:12.359Z,102188.84
2023-05-25T10:11:42.795Z,102194.94
2023-05-25T10:14:14.371Z,102190.56
2023-05-25T10:16:43.242Z,102202.97
2023-05-25T10:19:18.239Z,102210.25
2023-05-25T10:21:52.235Z,102211.97
2023-05-25T10:24:27.893Z,102201.88
2023-05-25T10:27:03.212Z,102211.59
2023-05-25T10:29:36.689Z,102206.97
2023-05-25T10:32:05.812Z,102207.47
2023-05-25T10:34:33.684Z,102208.31
2023-05-25T10:37:02.721Z,102205.03
2023-05-25T10:39:32.948Z,102203.94
2023-05-25T10:42:02.881Z,102218.53
2023-05-25T10:44:31.189Z,102217.91
2023-05-25T10:47:00.995Z,102219.63
2023-05-25T10:49:33.438Z,102218.78
2023-05-25T10:52:03.502Z,102220.59
2023-05-25T10:54:36.089Z,102221.22
2023-05-25T10:57:10.959Z,102220.94
2023-05-25T10:59:42.388Z,102207.47
2023-05-25T11:02:10.068Z,102206.97
2023-05-25T11:04:38.031Z,102204.88
2023-05-25T11:07:14.139Z,102201.34
2023-05-25T11:09:44.589Z,102200.25
2023-05-25T11:12:22.577Z,102200.63
2023-05-25T11:15:18.677Z,102205.13
2023-05-25T11:17:49.406Z,102203.50
2023-05-25T11:20:25.039Z,102197.25
2023-05-25T11:22:53.333Z,102198.28
2023-05-25T11:25:43.865Z,102195.84
2023-05-25T11:28:12.520Z,102186.44
2023-05-25T11:30:42.374Z,102185.78
2023-05-25T11:33:10.129Z,102177.34
2023-05-25T11:35:38.058Z,102181.44
2023-05-25T11:38:07.777Z,102172.88
2023-05-25T11:40:38.323Z,102181.25
2023-05-25T11:43:10.343Z,102168.19
2023-05-25T11:45:39.191Z,102170.59
2023-05-25T11:48:07.198Z,102164.97
2023-05-25T11:50:34.774Z,102163.69
2023-05-25T11:53:06.161Z,102154.66
2023-05-25T11:55:33.904Z,102155.84
2023-05-25T11:58:01.549Z,102160.69
2023-05-25T12:00:31.465Z,102152.84
2023-05-25T12:02:59.196Z,102153.88
2023-05-25T12:05:26.964Z,102155.03
2023-05-25T12:07:54.676Z,102150.81
2023-05-25T12:10:22.248Z,102142.34
2023-05-25T12:12:51.606Z,102142.19
2023-05-25T12:15:22.318Z,102140.22
2023-05-25T12:17:52.522Z,102140.94
2023-05-25T12:20:21.379Z,102140.66
2023-05-25T12:22:49.393Z,102131.66
2023-05-25T12:25:20.921Z,102133.22
2023-05-25T12:27:48.575Z,102124.88
2023-05-25T12:30:16.345Z,102129.28
2023-05-25T12:32:56.000Z,102136.34
2023-05-25T12:35:23.751Z,102138.47
2023-05-25T12:37:51.302Z,102139.19
2023-05-25T12:40:20.626Z,102127.47
2023-05-25T12:42:56.911Z,102125.03
2023-05-25T12:45:24.666Z,102127.47
2023-05-25T12:47:52.367Z,102120.94
2023-05-25T12:50:21.322Z,102121.03
2023-05-25T12:52:49.658Z,102119.63
2023-05-25T12:55:27.355Z,102124.84
2023-05-25T12:57:55.552Z,102116.94
2023-05-25T13:00:23.814Z,102115.78
2023-05-25T13:02:51.845Z,102111.66
2023-05-25T13:05:22.618Z,102116.44
2023-05-25T13:07:50.396Z,102099.66
2023-05-25T13:10:18.965Z,102105.97
2023-05-25T13:12:47.438Z,102111.09
2023-05-25T13:15:17.553Z,102099.03
2023-05-25T13:17:45.967Z,102097.91
2023-05-25T13:20:15.206Z,102099.44
2023-05-25T13:22:45.908Z,102102.84
2023-05-25T13:25:14.896Z,102104.97
2023-05-25T13:27:44.822Z,102111.63
2023-05-25T13:30:13.785Z,102093.78
2023-05-25T13:32:43.243Z,102112.50
2023-05-25T13:35:17.337Z,102095.75
2023-05-25T13:37:46.235Z,102099.19
2023-05-25T13:40:14.426Z,102094.09
2023-05-25T13:42:42.083Z,102096.34
2023-05-25T13:45:11.005Z,102101.06
2023-05-25T13:47:38.706Z,102096.50
2023-05-25T13:50:07.613Z,102092.41
2023-05-25T13:52:36.827Z,102090.56
2023-05-25T13:55:07.285Z,102092.75
2023-05-25T13:57:35.348Z,102091.03
2023-05-25T14:00:02.998Z,102093.03
2023-05-25T14:02:35.316Z,102091.03
2023-05-25T14:05:03.305Z,102086.25
2023-05-25T14:07:31.211Z,102078.56
2023-05-25T14:10:00.128Z,102081.34
2023-05-25T14:12:29.401Z,102077.53
2023-05-25T14:14:56.983Z,102072.16
2023-05-25T14:17:25.331Z,102070.78
2023-05-25T14:19:52.977Z,102072.75
2023-05-25T14:22:20.761Z,102066.00
2023-05-25T14:24:48.399Z,102064.00
2023-05-25T14:27:20.810Z,102066.53
2023-05-25T14:29:50.022Z,102064.56
2023-05-25T14:32:18.378Z,102072.41
2023-05-25T14:34:46.360Z,102063.22
2023-05-25T14:37:13.988Z,102063.59
2023-05-25T14:39:41.584Z,102065.50
2023-05-25T14:42:09.136Z,102054.72
2023-05-25T14:44:36.685Z,102065.19
2023-05-25T14:47:06.342Z,102060.75
2023-05-25T14:49:33.948Z,102061.88
2023-05-25T14:52:01.495Z,102067.84
2023-05-25T14:54:29.196Z,102066.09
2023-05-25T14:56:56.829Z,102069.50
2023-05-25T14:59:24.629Z,102071.59
2023-05-25T15:01:52.286Z,102067.34
2023-05-25T15:04:21.575Z,102057.19
2023-05-25T15:06:49.339Z,102061.09
2023-05-25T15:09:19.145Z,102063.53
2023-05-25T15:11:46.795Z,102057.38
2023-05-25T15:14:16.020Z,102057.13
2023-05-25T15:16:43.961Z,102047.59
2023-05-25T15:19:13.333Z,102052.72
2023-05-25T15:21:44.172Z,102054.81
2023-05-25T15:24:16.407Z,102052.13
2023-05-25T15:26:44.477Z,102054.19
2023-05-25T15:29:12.057Z,102054.06
2023-05-25T15:31:39.706Z,102046.63
2023-05-25T15:34:07.366Z,102048.16
2023-05-25T15:36:34.936Z,102046.13
2023-05-25T15:39:04.476Z,102044.59
2023-05-25T15:41:32.095Z,102040.41
2023-05-25T15:44:01.210Z,102040.75
2023-05-25T15:46:29.146Z,102041.25
2023-05-25T15:48:56.799Z,102033.63
2023-05-25T15:51:24.491Z,102035.69
2023-05-25T15:53:52.290Z,102030.22
2023-05-25T15:56:21.752Z,102026.19
2023-05-25T15:58:49.425Z,102028.72
2023-05-25T16:01:17.327Z,102032.94
2023-05-25T16:03:45.176Z,102029.00
2023-05-25T16:06:12.865Z,102031.38
2023-05-25T16:08:40.477Z,102026.44
2023-05-25T16:11:08.206Z,102024.88
2023-05-25T16:13:37.234Z,102021.13
2023-05-25T16:16:04.976Z,102021.94
2023-05-25T16:18:32.674Z,102020.38
2023-05-25T16:21:00.652Z,102018.81
2023-05-25T16:23:28.419Z,102029.03
2023-05-25T16:25:56.194Z,102031.88
2023-05-25T16:28:23.915Z,102024.72
2023-05-25T16:30:53.433Z,102026.38
2023-05-25T16:33:21.018Z,102030.84
2023-05-25T16:35:48.943Z,102029.41
2023-05-25T16:38:16.620Z,102033.91
2023-05-25T16:40:44.204Z,102023.56
2023-05-25T16:43:12.005Z,102024.38
2023-05-25T16:45:39.695Z,102025.28
2023-05-25T16:48:08.908Z,102025.06
2023-05-25T16:50:36.676Z,102017.84
2023-05-25T16:53:04.265Z,102025.06
2023-05-25T16:55:33.427Z,102021.69
2023-05-25T16:58:01.150Z,102022.84
2023-05-25T17:00:28.682Z,102021.31
2023-05-25T17:02:56.695Z,102028.16
2023-05-25T17:05:25.797Z,102029.78
2023-05-25T17:07:53.491Z,102025.84
2023-05-25T17:10:21.255Z,102026.16
2023-05-25T17:12:48.846Z,102020.09
2023-05-25T17:15:16.864Z,102032.88
2023-05-25T17:17:44.543Z,102020.69
2023-05-25T17:20:12.437Z,102024.69
2023-05-25T17:22:41.400Z,102024.16
2023-05-25T17:25:09.877Z,102019.69
2023-05-25T17:27:37.414Z,102026.22
2023-05-25T17:30:05.878Z,102028.31
2023-05-25T17:32:33.449Z,102033.72
2023-05-25T17:35:02.360Z,102027.78
2023-05-25T17:37:29.903Z,102027.25
2023-05-25T17:39:58.834Z,102024.84
2023-05-25T17:42:26.526Z,102028.53
2023-05-25T17:44:54.150Z,102027.13
2023-05-25T17:47:21.840Z,102026.44
2023-05-25T17:49:49.399Z,102025.91
2023-05-25T17:52:17.066Z,102023.50
2023-05-25T17:54:44.686Z,102026.34
2023-05-25T17:57:13.791Z,102021.41
2023-05-25T17:59:42.383Z,102022.56
2023-05-25T18:02:11.852Z,102020.16
2023-05-25T18:04:39.543Z,102023.03
2023-05-25T18:07:07.276Z,102027.31
2023-05-25T18:09:34.848Z,102029.44
2023-05-25T18:12:03.040Z,102036.09
2023-05-25T18:14:35.178Z,102035.84
2023-05-25T18:17:02.852Z,102028.09
2023-05-25T18:19:30.563Z,102028.94
2023-05-25T18:21:58.141Z,102037.00
2023-05-25T18:24:25.832Z,102033.47
2023-05-25T18:26:53.908Z,102043.50
2023-05-25T18:29:21.499Z,102045.34
2023-05-25T18:31:50.743Z,102050.19
2023-05-25T18:34:18.456Z,102044.91
2023-05-25T18:36:46.185Z,102041.53
2023-05-25T18:39:13.816Z,102047.78
2023-05-25T18:41:42.477Z,102047.06
2023-05-25T18:44:10.187Z,102051.03
2023-05-25T18:46:39.617Z,102046.94
2023-05-25T18:49:08.664Z,102051.94
2023-05-25T18:51:37.655Z,102060.53
2023-05-25T18:54:05.400Z,102057.59
2023-05-25T18:56:32.954Z,102055.44
2023-05-25T18:59:00.664Z,102056.75
2023-05-25T19:01:28.230Z,102068.06
2023-05-25T19:03:58.108Z,102064.09
2023-05-25T19:06:27.975Z,102060.16
2023-05-25T19:08:55.727Z,102061.56
2023-05-25T19:11:23.309Z,102063.97
2023-05-25T19:13:50.981Z,102064.53
2023-05-25T19:16:18.623Z,102065.78
2023-05-25T19:18:47.017Z,102067.06
2023-05-25T19:21:14.759Z,102072.84
2023-05-25T19:23:44.737Z,102072.84
2023-05-25T19:26:12.405Z,102074.09
2023-05-25T19:28:40.075Z,102074.66
2023-05-25T19:31:07.681Z,102084.25
2023-05-25T19:33:35.463Z,102082.13
2023-05-25T19:36:03.080Z,102079.00
2023-05-25T19:38:40.298Z,102082.22
2023-05-25T19:41:10.599Z,102086.41
2023-05-25T19:43:38.610Z,102092.03
2023-05-25T19:46:06.270Z,102100.63
2023-05-25T19:48:33.973Z,102105.53
2023-05-25T19:51:02.215Z,102105.22
2023-05-25T19:53:31.307Z,102110.16
2023-05-25T19:55:59.263Z,102111.66
2023-05-25T19:58:28.189Z,102115.72
2023-05-25T20:00:55.857Z,102108.22
2023-05-25T20:03:23.650Z,102114.13
2023-05-25T20:05:51.293Z,102115.63
2023-05-25T20:08:19.046Z,102116.00
2023-05-25T20:10:46.859Z,102128.84
2023-05-25T20:13:14.532Z,102122.28
2023-05-25T20:15:43.725Z,102129.00
2023-05-25T20:18:11.736Z,102134.44
2023-05-25T20:20:39.348Z,102122.66
2023-05-25T20:23:07.984Z,102132.06
2023-05-25T20:25:35.618Z,102128.91
2023-05-25T20:28:03.173Z,102134.66
2023-05-25T20:30:30.751Z,102135.16
2023-05-25T20:33:00.091Z,102137.47
2023-05-25T20:35:28.054Z,102138.94
2023-05-25T20:37:55.630Z,102135.78
2023-05-25T20:40:23.298Z,102134.38
2023-05-25T20:42:50.881Z,102140.09
2023-05-25T20:45:18.739Z,102144.09
2023-05-25T20:47:46.509Z,102140.09
2023-05-25T20:50:15.552Z,102151.16
2023-05-25T20:52:43.133Z,102147.16
2023-05-25T20:55:11.006Z,102158.97
2023-05-25T20:57:38.616Z,102159.47
2023-05-25T21:00:07.127Z,102161.66
2023-05-25T21:02:34.910Z,102163.00
2023-05-25T21:05:02.892Z,102165.31
2023-05-25T21:07:31.816Z,102171.00
2023-05-25T21:10:00.001Z,102166.88
2023-05-25T21:12:27.925Z,102172.59
2023-05-25T21:14:55.657Z,102173.78
2023-05-25T21:17:23.376Z,102167.22
2023-05-25T21:19:51.304Z,102172.94
2023-05-25T21:22:19.134Z,102182.41
2023-05-25T21:24:48.026Z,102173.03
2023-05-25T21:27:16.282Z,102176.03
2023-05-25T21:29:43.879Z,102178.31
2023-05-25T21:32:11.714Z,102189.47
2023-05-25T21:34:39.321Z,102189.09
2023-05-25T21:37:06.969Z,102194.78
2023-05-25T21:39:34.622Z,102194.41
2023-05-25T21:42:03.670Z,102189.50
2023-05-25T21:44:31.229Z,102192.66
2023-05-25T21:46:58.871Z,102198.44
2023-05-25T21:49:26.810Z,102200.47
2023-05-25T21:51:54.362Z,102201.91
2023-05-25T21:54:23.893Z,102195.44
2023-05-25T21:56:51.494Z,102206.34
2023-05-25T21:59:20.461Z,102196.22
2023-05-25T22:01:48.273Z,102196.56
2023-05-25T22:04:15.983Z,102204.88
2023-05-25T22:06:43.581Z,102204.50
2023-05-25T22:09:11.209Z,102206.44
2023-05-25T22:11:40.002Z,102202.25
2023-05-25T22:14:07.700Z,102214.97
2023-05-25T22:16:36.821Z,102211.81
2023-05-25T22:19:04.630Z,102221.81
2023-05-25T22:21:32.216Z,102208.94
2023-05-25T22:24:00.164Z,102210.09
2023-05-25T22:26:29.158Z,102214.16
2023-05-25T22:28:56.813Z,102213.88
2023-05-25T22:31:25.679Z,102209.00
2023-05-25T22:33:54.917Z,102211.19
2023-05-25T22:36:22.567Z,102216.81
2023-05-25T22:38:50.252Z,102208.28
2023-05-25T22:41:17.841Z,102212.13
2023-05-25T22:43:46.307Z,102213.41
2023-05-25T22:46:13.902Z,102215.53
2023-05-25T22:48:43.362Z,102217.44
2023-05-25T22:51:12.525Z,102223.75
2023-05-25T22:53:40.259Z,102227.69
2023-05-25T22:56:08.180Z,102228.09
2023-05-25T22:58:35.735Z,102224.03
2023-05-25T23:01:03.349Z,102231.28
2023-05-25T23:03:30.998Z,102228.94
2023-05-25T23:05:58.721Z,102228.19
2023-05-25T23:08:28.144Z,102231.91
2023-05-25T23:10:55.739Z,102223.28
2023-05-25T23:13:24.515Z,102226.53
2023-05-25T23:15:52.332Z,102233.00
2023-05-25T23:18:20.140Z,102228.88
2023-05-25T23:20:47.956Z,102239.72
2023-05-25T23:23:15.883Z,102243.44
2023-05-25T23:25:46.005Z,102238.19
2023-05-25T23:28:13.871Z,102230.53
2023-05-25T23:30:41.553Z,102234.25
2023-05-25T23:33:10.185Z,102238.94
2023-05-25T23:35:37.871Z,102231.97
2023-05-25T23:38:05.501Z,102239.31
2023-05-25T23:40:33.030Z,102233.34
2023-05-25T23:43:02.184Z,102233.63
2023-05-25T23:45:29.879Z,102238.31
2023-05-25T23:47:57.659Z,102239.47
2023-05-25T23:50:25.297Z,102235.16
2023-05-25T23:52:53.048Z,102238.91
2023-05-25T23:55:21.007Z,102228.47
2023-05-25T23:57:48.628Z,102231.19
